createdAt,value
2019-03-17T00:00:30.830Z,74.55
2019-03-17T00:03:00.899Z,74.70
2019-03-17T00:05:30.910Z,74.64
2019-03-17T00:08:00.362Z,74.93
2019-03-17T00:10:31.237Z,74.92
2019-03-17T00:13:00.673Z,74.85
2019-03-17T00:15:30.098Z,74.90
2019-03-17T00:17:59.546Z,74.68
2019-03-17T00:20:28.974Z,75.18
2019-03-17T00:22:58.410Z,75.10
2019-03-17T00:25:27.835Z,75.21
2019-03-17T00:27:57.263Z,75.36
2019-03-17T00:30:26.698Z,75.68
2019-03-17T00:32:56.124Z,75.79
2019-03-17T00:35:25.562Z,75.85
2019-03-17T00:37:54.986Z,75.88
2019-03-17T00:40:24.416Z,75.70
2019-03-17T00:42:53.847Z,75.75
2019-03-17T00:45:23.339Z,75.86
2019-03-17T00:47:52.768Z,75.80
2019-03-17T00:50:22.193Z,75.95
2019-03-17T00:52:51.625Z,76.63
2019-03-17T00:55:21.040Z,77.01
2019-03-17T00:57:50.487Z,77.35
2019-03-17T01:00:19.916Z,77.34
2019-03-17T01:02:49.352Z,77.64
2019-03-17T01:05:18.775Z,77.84
2019-03-17T01:07:48.204Z,77.83
2019-03-17T01:10:17.629Z,77.73
2019-03-17T01:12:47.072Z,78.65
2019-03-17T01:15:16.490Z,78.48
2019-03-17T01:17:45.928Z,78.31
2019-03-17T01:20:15.347Z,78.75
2019-03-17T01:22:44.780Z,78.74
2019-03-17T01:25:14.286Z,79.12
2019-03-17T01:27:43.709Z,79.08
2019-03-17T01:30:13.803Z,78.87
2019-03-17T01:32:43.239Z,79.10
2019-03-17T01:35:12.660Z,79.22
2019-03-17T01:37:42.337Z,79.23
2019-03-17T01:40:12.231Z,78.98
2019-03-17T01:42:41.661Z,78.79
2019-03-17T01:45:11.623Z,78.69
2019-03-17T01:47:41.056Z,78.53
2019-03-17T01:50:10.755Z,78.65
2019-03-17T01:52:40.193Z,78.42
2019-03-17T01:55:09.617Z,78.19
2019-03-17T01:57:39.050Z,78.56
2019-03-17T02:00:12.524Z,78.33
2019-03-17T02:02:41.960Z,78.94
2019-03-17T02:05:21.356Z,78.92
2019-03-17T02:07:42.669Z,78.84
2019-03-17T02:10:12.235Z,79.48
2019-03-17T02:12:41.675Z,78.98
2019-03-17T02:15:11.167Z,78.61
2019-03-17T02:17:40.610Z,78.45
2019-03-17T02:20:11.342Z,78.63
2019-03-17T02:22:40.777Z,78.29
2019-03-17T02:25:10.194Z,78.01
2019-03-17T02:27:39.613Z,78.06
2019-03-17T02:30:12.260Z,77.80
2019-03-17T02:32:41.701Z,77.92
2019-03-17T02:35:11.122Z,78.28
2019-03-17T02:37:40.583Z,78.17
2019-03-17T02:40:09.977Z,77.67
2019-03-17T02:42:39.402Z,77.38
2019-03-17T02:45:10.572Z,77.58
2019-03-17T02:47:40.000Z,77.42
2019-03-17T02:50:10.465Z,77.36
2019-03-17T02:52:40.135Z,77.77
2019-03-17T02:55:10.014Z,77.98
2019-03-17T02:57:39.442Z,78.07
2019-03-17T03:00:12.201Z,78.59
2019-03-17T03:02:41.646Z,78.11
2019-03-17T03:05:11.402Z,78.51
2019-03-17T03:07:40.825Z,78.72
2019-03-17T03:10:10.337Z,78.76
2019-03-17T03:12:39.770Z,78.36
2019-03-17T03:15:09.942Z,78.50
2019-03-17T03:17:39.363Z,78.80
2019-03-17T03:20:10.136Z,78.46
2019-03-17T03:22:39.555Z,78.94
2019-03-17T03:25:09.925Z,78.51
2019-03-17T03:27:39.349Z,79.18
2019-03-17T03:30:12.789Z,79.29
2019-03-17T03:32:42.226Z,79.20
2019-03-17T03:35:11.678Z,79.80
2019-03-17T03:37:41.075Z,79.49
2019-03-17T03:40:12.518Z,79.18
2019-03-17T03:42:41.936Z,78.89
2019-03-17T03:45:12.893Z,79.65
2019-03-17T03:47:42.322Z,79.56
2019-03-17T03:50:12.583Z,78.87
2019-03-17T03:52:42.002Z,79.45
2019-03-17T03:55:11.442Z,79.59
2019-03-17T03:57:41.130Z,80.24
2019-03-17T04:00:13.840Z,80.50
2019-03-17T04:02:43.259Z,80.24
2019-03-17T04:05:12.768Z,80.12
2019-03-17T04:07:42.170Z,80.26
2019-03-17T04:10:12.145Z,79.78
2019-03-17T04:12:41.677Z,80.13
2019-03-17T04:15:12.083Z,80.42
2019-03-17T04:17:41.506Z,80.08
2019-03-17T04:20:12.547Z,79.90
2019-03-17T04:22:41.973Z,80.17
2019-03-17T04:25:13.315Z,79.75
2019-03-17T04:27:42.759Z,79.68
2019-03-17T04:30:12.325Z,79.80
2019-03-17T04:32:41.736Z,79.41
2019-03-17T04:35:11.170Z,79.51
2019-03-17T04:37:40.594Z,79.82
2019-03-17T04:40:10.666Z,80.02
2019-03-17T04:42:40.098Z,79.75
2019-03-17T04:45:11.068Z,79.56
2019-03-17T04:47:40.479Z,79.46
2019-03-17T04:50:10.752Z,79.34
2019-03-17T04:52:40.170Z,79.74
2019-03-17T04:55:12.381Z,79.87
2019-03-17T04:57:41.809Z,79.98
2019-03-17T05:00:13.481Z,80.44
2019-03-17T05:02:42.906Z,81.00
2019-03-17T05:05:12.346Z,80.54
2019-03-17T05:07:41.769Z,80.76
2019-03-17T05:10:11.939Z,80.44
2019-03-17T05:12:41.356Z,80.29
2019-03-17T05:15:12.134Z,80.19
2019-03-17T05:17:41.794Z,80.01
2019-03-17T05:20:11.865Z,79.99
2019-03-17T05:22:41.293Z,79.80
2019-03-17T05:25:10.859Z,79.81
2019-03-17T05:27:40.288Z,80.35
2019-03-17T05:30:12.057Z,80.54
2019-03-17T05:32:41.573Z,80.75
2019-03-17T05:35:11.062Z,80.69
2019-03-17T05:37:40.493Z,81.18
2019-03-17T05:40:13.726Z,80.52
2019-03-17T05:42:43.159Z,80.25
2019-03-17T05:45:12.582Z,80.30
2019-03-17T05:47:42.009Z,80.01
2019-03-17T05:50:11.973Z,79.71
2019-03-17T05:52:41.412Z,79.83
2019-03-17T05:55:11.198Z,80.22
2019-03-17T05:57:40.630Z,79.52
2019-03-17T06:00:16.661Z,79.62
2019-03-17T06:02:46.255Z,79.94
2019-03-17T06:05:16.190Z,80.33
2019-03-17T06:07:45.622Z,79.87
2019-03-17T06:10:15.125Z,79.78
2019-03-17T06:12:44.557Z,79.88
2019-03-17T06:15:14.036Z,79.51
2019-03-17T06:17:43.538Z,79.87
2019-03-17T06:20:13.487Z,79.70
2019-03-17T06:22:42.929Z,79.76
2019-03-17T06:25:12.440Z,79.27
2019-03-17T06:27:41.854Z,79.09
2019-03-17T06:30:15.678Z,79.13
2019-03-17T06:32:45.113Z,79.33
2019-03-17T06:35:14.542Z,79.40
2019-03-17T06:37:43.982Z,79.50
2019-03-17T06:40:20.208Z,79.94
2019-03-17T06:42:49.651Z,79.93
2019-03-17T06:45:19.068Z,79.91
2019-03-17T06:47:48.518Z,79.62
2019-03-17T06:50:18.055Z,79.03
2019-03-17T06:52:47.514Z,78.96
2019-03-17T06:55:18.446Z,78.95
2019-03-17T06:57:47.881Z,78.47
2019-03-17T07:00:17.371Z,78.70
2019-03-17T07:02:46.802Z,78.39
2019-03-17T07:05:16.307Z,77.82
2019-03-17T07:07:45.738Z,77.78
2019-03-17T07:10:15.163Z,77.85
2019-03-17T07:12:44.595Z,77.46
2019-03-17T07:15:14.158Z,77.53
2019-03-17T07:17:43.616Z,77.29
2019-03-17T07:20:14.656Z,77.17
2019-03-17T07:22:44.083Z,76.82
2019-03-17T07:25:13.643Z,76.96
2019-03-17T07:27:43.077Z,76.86
2019-03-17T07:30:16.624Z,76.42
2019-03-17T07:32:46.053Z,76.53
2019-03-17T07:35:15.474Z,76.38
2019-03-17T07:37:56.165Z,75.84
2019-03-17T07:40:16.059Z,75.93
2019-03-17T07:42:45.497Z,75.96
2019-03-17T07:45:15.184Z,75.32
2019-03-17T07:47:44.629Z,75.41
2019-03-17T07:50:14.597Z,75.25
2019-03-17T07:52:44.035Z,75.08
2019-03-17T07:55:13.460Z,75.72
2019-03-17T07:57:42.899Z,76.36
2019-03-17T08:00:15.502Z,75.69
2019-03-17T08:02:44.931Z,75.46
2019-03-17T08:05:14.352Z,75.15
2019-03-17T08:07:43.788Z,74.73
2019-03-17T08:10:15.130Z,74.81
2019-03-17T08:12:44.558Z,74.93
2019-03-17T08:15:15.116Z,76.17
2019-03-17T08:17:44.559Z,76.46
2019-03-17T08:20:14.683Z,74.97
2019-03-17T08:22:44.133Z,74.58
2019-03-17T08:25:13.621Z,73.86
2019-03-17T08:27:43.048Z,74.46
2019-03-17T08:30:15.355Z,72.61
2019-03-17T08:32:44.783Z,71.67
2019-03-17T08:35:14.212Z,71.80
2019-03-17T08:37:43.674Z,71.88
2019-03-17T08:40:17.544Z,72.67
2019-03-17T08:42:46.980Z,71.22
2019-03-17T08:45:16.414Z,70.22
2019-03-17T08:47:57.431Z,60.46
2019-03-17T08:50:17.067Z,62.21
2019-03-17T08:52:46.511Z,54.51
2019-03-17T08:55:15.943Z,49.01
2019-03-17T08:57:45.385Z,46.45
2019-03-17T09:00:20.698Z,45.48
2019-03-17T09:02:50.143Z,42.01
2019-03-17T09:05:19.568Z,41.44
2019-03-17T09:07:49.002Z,41.95
2019-03-17T09:10:18.442Z,41.22
2019-03-17T09:12:47.873Z,40.05
2019-03-17T09:15:17.390Z,38.71
2019-03-17T09:17:46.825Z,37.67
2019-03-17T09:20:16.264Z,37.39
2019-03-17T09:22:45.696Z,37.70
2019-03-17T09:25:15.139Z,37.99
2019-03-17T09:27:44.571Z,39.96
2019-03-17T09:30:18.478Z,37.13
2019-03-17T09:32:47.915Z,36.71
2019-03-17T09:35:17.358Z,35.93
2019-03-17T09:37:46.817Z,35.68
2019-03-17T09:40:19.645Z,35.68
2019-03-17T09:42:49.080Z,35.91
2019-03-17T09:45:18.526Z,36.35
2019-03-17T09:47:48.043Z,35.52
2019-03-17T09:50:21.093Z,35.93
2019-03-17T09:52:50.525Z,35.45
2019-03-17T09:55:20.252Z,35.06
2019-03-17T09:57:49.684Z,34.86
2019-03-17T10:00:22.009Z,36.04
2019-03-17T10:02:51.466Z,34.75
2019-03-17T10:05:20.916Z,34.73
2019-03-17T10:07:50.351Z,34.24
2019-03-17T10:10:24.064Z,35.03
2019-03-17T10:12:53.495Z,33.81
2019-03-17T10:15:22.977Z,34.62
2019-03-17T10:17:52.379Z,34.24
2019-03-17T10:20:21.902Z,35.02
2019-03-17T10:22:51.328Z,35.58
2019-03-17T10:25:20.762Z,34.91
2019-03-17T10:27:50.195Z,34.97
2019-03-17T10:30:21.913Z,35.47
2019-03-17T10:32:51.354Z,35.98
2019-03-17T10:35:20.785Z,35.05
2019-03-17T10:37:50.225Z,35.14
2019-03-17T10:40:21.484Z,34.96
2019-03-17T10:42:51.093Z,34.97
2019-03-17T10:45:20.539Z,34.11
2019-03-17T10:47:49.976Z,35.08
2019-03-17T10:50:23.215Z,35.47
2019-03-17T10:52:52.714Z,35.17
2019-03-17T10:55:22.103Z,35.29
2019-03-17T10:57:51.537Z,34.29
2019-03-17T11:00:23.556Z,34.27
2019-03-17T11:02:53.060Z,34.86
2019-03-17T11:05:22.517Z,34.49
2019-03-17T11:07:51.945Z,34.07
2019-03-17T11:10:21.389Z,34.02
2019-03-17T11:12:50.824Z,33.31
2019-03-17T11:15:24.072Z,33.36
2019-03-17T11:17:53.515Z,33.55
2019-03-17T11:20:22.960Z,34.51
2019-03-17T11:22:52.395Z,34.10
2019-03-17T11:25:22.102Z,34.02
2019-03-17T11:27:51.537Z,33.19
2019-03-17T11:30:24.646Z,33.67
2019-03-17T11:32:54.148Z,33.52
2019-03-17T11:35:23.601Z,32.74
2019-03-17T11:37:53.033Z,33.57
2019-03-17T11:40:23.009Z,34.01
2019-03-17T11:42:52.438Z,33.39
2019-03-17T11:45:21.884Z,33.63
2019-03-17T11:47:52.352Z,33.79
2019-03-17T11:50:22.541Z,34.93
2019-03-17T11:52:52.510Z,33.58
2019-03-17T11:55:21.975Z,34.29
2019-03-17T11:57:51.395Z,33.47
2019-03-17T12:00:22.636Z,34.10
2019-03-17T12:02:52.079Z,33.62
2019-03-17T12:05:21.511Z,34.02
2019-03-17T12:07:50.956Z,33.66
2019-03-17T12:10:22.507Z,34.14
2019-03-17T12:12:52.017Z,33.88
2019-03-17T12:15:30.293Z,34.59
2019-03-17T12:17:59.743Z,34.83
2019-03-17T12:20:29.174Z,34.14
2019-03-17T12:22:58.612Z,34.26
2019-03-17T12:25:28.057Z,34.47
2019-03-17T12:27:57.499Z,34.87
2019-03-17T12:30:29.829Z,34.30
2019-03-17T12:32:59.280Z,35.06
2019-03-17T12:35:28.712Z,34.88
2019-03-17T12:37:58.167Z,34.92
2019-03-17T12:40:27.594Z,35.27
2019-03-17T12:42:57.038Z,35.97
2019-03-17T12:45:26.472Z,36.42
2019-03-17T12:47:55.926Z,36.81
2019-03-17T12:50:27.168Z,37.62
2019-03-17T12:52:56.622Z,37.23
2019-03-17T12:55:26.055Z,36.98
2019-03-17T12:57:55.495Z,37.04
2019-03-17T13:00:27.205Z,37.01
2019-03-17T13:02:56.815Z,36.89
2019-03-17T13:05:26.253Z,37.42
2019-03-17T13:07:55.694Z,37.79
2019-03-17T13:10:25.136Z,38.06
2019-03-17T13:12:54.574Z,38.71
2019-03-17T13:15:24.007Z,39.00
2019-03-17T13:17:53.705Z,39.45
2019-03-17T13:20:23.139Z,40.03
2019-03-17T13:22:52.576Z,40.03
2019-03-17T13:25:22.013Z,40.27
2019-03-17T13:27:51.740Z,40.85
2019-03-17T13:30:21.175Z,41.90
2019-03-17T13:32:50.609Z,42.12
2019-03-17T13:35:20.036Z,42.90
2019-03-17T13:37:49.483Z,42.92
2019-03-17T13:40:29.377Z,43.58
2019-03-17T13:42:53.183Z,44.03
2019-03-17T13:45:22.625Z,43.92
2019-03-17T13:47:53.184Z,43.95
2019-03-17T13:50:24.681Z,44.04
2019-03-17T13:52:54.134Z,47.61
2019-03-17T13:55:23.565Z,54.16
2019-03-17T13:58:05.563Z,56.12
2019-03-17T14:00:34.983Z,57.43
2019-03-17T14:03:04.425Z,58.77
2019-03-17T14:05:33.921Z,60.02
2019-03-17T14:08:03.366Z,60.87
2019-03-17T14:10:41.054Z,62.09
2019-03-17T14:13:06.880Z,63.94
2019-03-17T14:15:36.324Z,62.28
2019-03-17T14:18:05.771Z,62.42
2019-03-17T14:20:35.205Z,63.58
2019-03-17T14:23:04.649Z,65.46
2019-03-17T14:25:37.003Z,67.56
2019-03-17T14:28:06.434Z,68.50
2019-03-17T14:30:35.878Z,69.33
2019-03-17T14:33:05.318Z,69.92
2019-03-17T14:35:34.750Z,68.64
2019-03-17T14:38:04.190Z,70.10
2019-03-17T14:40:33.627Z,69.28
2019-03-17T14:43:03.059Z,68.11
2019-03-17T14:45:32.753Z,68.21
2019-03-17T14:48:02.190Z,68.23
2019-03-17T14:50:31.657Z,67.44
2019-03-17T14:53:01.121Z,67.94
2019-03-17T14:55:30.536Z,67.13
2019-03-17T14:57:59.982Z,67.83
2019-03-17T15:00:29.417Z,68.66
2019-03-17T15:02:58.854Z,68.23
2019-03-17T15:05:28.350Z,68.59
2019-03-17T15:07:57.808Z,68.36
2019-03-17T15:10:27.705Z,67.33
2019-03-17T15:12:57.219Z,67.49
2019-03-17T15:15:26.657Z,68.26
2019-03-17T15:17:56.103Z,68.76
2019-03-17T15:20:28.746Z,68.41
2019-03-17T15:23:01.194Z,69.25
2019-03-17T15:25:30.627Z,69.95
2019-03-17T15:28:00.062Z,70.50
2019-03-17T15:30:32.442Z,70.95
2019-03-17T15:33:02.539Z,70.37
2019-03-17T15:35:32.396Z,68.86
2019-03-17T15:38:01.808Z,69.06
2019-03-17T15:40:31.257Z,69.15
2019-03-17T15:43:00.765Z,67.95
2019-03-17T15:45:30.253Z,68.05
2019-03-17T15:48:04.029Z,68.23
2019-03-17T15:50:32.650Z,68.62
2019-03-17T15:53:02.071Z,68.57
2019-03-17T15:55:31.510Z,67.98
2019-03-17T15:58:00.941Z,67.93
2019-03-17T16:00:30.374Z,68.25
2019-03-17T16:03:00.054Z,67.97
2019-03-17T16:05:29.790Z,67.97
2019-03-17T16:07:59.191Z,67.63
2019-03-17T16:10:30.919Z,68.20
2019-03-17T16:13:00.348Z,66.88
2019-03-17T16:15:29.782Z,67.57
2019-03-17T16:17:59.206Z,68.21
2019-03-17T16:20:29.005Z,68.18
2019-03-17T16:22:58.432Z,68.46
2019-03-17T16:25:37.196Z,67.90
2019-03-17T16:28:06.706Z,67.79
2019-03-17T16:30:36.134Z,67.26
2019-03-17T16:33:05.700Z,66.50
2019-03-17T16:35:35.144Z,67.21
2019-03-17T16:38:04.634Z,67.12
2019-03-17T16:40:36.290Z,66.42
2019-03-17T16:43:06.456Z,66.59
2019-03-17T16:45:35.889Z,66.25
2019-03-17T16:48:05.392Z,67.16
2019-03-17T16:53:11.049Z,68.14
2019-03-17T16:55:40.501Z,67.97
2019-03-17T16:58:09.930Z,67.35
2019-03-17T17:00:39.377Z,67.43
2019-03-17T17:03:08.806Z,67.56
2019-03-17T17:05:38.242Z,68.54
2019-03-17T17:08:07.675Z,68.94
2019-03-17T17:10:38.929Z,69.13
2019-03-17T17:13:08.258Z,69.04
2019-03-17T17:15:37.690Z,69.01
2019-03-17T17:18:07.120Z,69.56
2019-03-17T17:20:40.855Z,69.31
2019-03-17T17:23:10.292Z,69.00
2019-03-17T17:25:39.719Z,69.56
2019-03-17T17:28:09.147Z,69.71
2019-03-17T17:30:38.572Z,70.02
2019-03-17T17:33:07.997Z,69.93
2019-03-17T17:35:37.419Z,70.27
2019-03-17T17:38:06.845Z,70.93
2019-03-17T17:40:36.517Z,71.20
2019-03-17T17:43:06.012Z,71.75
2019-03-17T17:45:35.445Z,72.42
2019-03-17T17:48:04.866Z,73.45
2019-03-17T17:50:34.673Z,73.99
2019-03-17T17:53:04.090Z,73.58
2019-03-17T17:55:33.522Z,73.92
2019-03-17T17:58:02.943Z,74.33
2019-03-17T18:00:45.736Z,73.79
2019-03-17T18:03:15.165Z,73.36
2019-03-17T18:05:44.592Z,73.67
2019-03-17T18:08:14.021Z,73.51
2019-03-17T18:10:43.451Z,73.85
2019-03-17T18:13:13.109Z,73.95
2019-03-17T18:15:42.541Z,74.43
2019-03-17T18:18:11.970Z,73.92
2019-03-17T18:20:41.393Z,74.18
2019-03-17T18:23:17.989Z,73.75
2019-03-17T18:25:41.984Z,72.69
2019-03-17T18:28:11.409Z,72.25
2019-03-17T18:30:40.834Z,72.76
2019-03-17T18:33:10.430Z,72.18
2019-03-17T18:35:39.846Z,70.32
2019-03-17T18:38:09.370Z,70.91
2019-03-17T18:40:38.774Z,70.32
2019-03-17T18:43:08.218Z,69.13
2019-03-17T18:45:37.703Z,69.96
2019-03-17T18:48:07.140Z,69.63
2019-03-17T18:50:36.567Z,69.68
2019-03-17T18:53:06.169Z,69.47
2019-03-17T18:55:35.596Z,70.49
2019-03-17T18:58:05.037Z,70.16
2019-03-17T19:00:34.468Z,70.34
2019-03-17T19:03:03.899Z,70.21
2019-03-17T19:05:33.354Z,70.68
2019-03-17T19:08:02.829Z,70.90
2019-03-17T19:10:32.263Z,70.22
2019-03-17T19:13:03.956Z,70.24
2019-03-17T19:15:32.857Z,68.88
2019-03-17T19:18:02.355Z,69.51
2019-03-17T19:20:31.774Z,68.86
2019-03-17T19:23:01.216Z,68.69
2019-03-17T19:25:30.645Z,68.09
2019-03-17T19:28:00.069Z,68.54
2019-03-17T19:30:29.496Z,68.76
2019-03-17T19:32:59.119Z,69.22
2019-03-17T19:35:28.539Z,68.79
2019-03-17T19:37:57.966Z,69.31
2019-03-17T19:40:27.425Z,68.71
2019-03-17T19:42:59.678Z,68.33
2019-03-17T19:45:28.234Z,68.73
2019-03-17T19:47:57.675Z,68.47
2019-03-17T19:50:27.353Z,68.45
2019-03-17T19:52:56.857Z,68.90
2019-03-17T19:55:26.276Z,68.18
2019-03-17T19:57:55.705Z,68.34
2019-03-17T20:00:25.135Z,68.20
2019-03-17T20:02:54.570Z,67.39
2019-03-17T20:05:24.001Z,67.82
2019-03-17T20:07:53.701Z,68.23
2019-03-17T20:10:28.199Z,68.33
2019-03-17T20:13:10.431Z,68.07
2019-03-17T20:15:28.974Z,67.96
2019-03-17T20:17:58.412Z,67.08
2019-03-17T20:20:27.838Z,67.39
2019-03-17T20:22:57.293Z,67.37
2019-03-17T20:25:26.719Z,67.68
2019-03-17T20:27:56.153Z,67.55
2019-03-17T20:30:25.574Z,67.54
2019-03-17T20:32:55.008Z,67.50
2019-03-17T20:35:24.437Z,67.87
2019-03-17T20:37:54.123Z,67.43
2019-03-17T20:40:23.549Z,67.10
2019-03-17T20:42:53.002Z,67.06
2019-03-17T20:45:22.423Z,67.54
2019-03-17T20:47:51.860Z,67.30
2019-03-17T20:50:21.423Z,66.65
2019-03-17T20:52:50.858Z,66.93
2019-03-17T20:55:20.363Z,67.70
2019-03-17T20:57:49.807Z,66.96
2019-03-17T21:00:20.147Z,66.17
2019-03-17T21:02:49.568Z,66.18
2019-03-17T21:05:18.990Z,66.21
2019-03-17T21:07:48.495Z,65.99
2019-03-17T21:10:18.388Z,66.24
2019-03-17T21:12:47.822Z,66.32
2019-03-17T21:15:21.710Z,66.55
2019-03-17T21:17:51.139Z,65.94
2019-03-17T21:20:25.488Z,66.91
2019-03-17T21:22:54.923Z,66.79
2019-03-17T21:25:24.350Z,65.91
2019-03-17T21:27:53.785Z,65.95
2019-03-17T21:30:26.717Z,65.82
2019-03-17T21:32:56.152Z,65.75
2019-03-17T21:35:25.577Z,66.31
2019-03-17T21:37:55.000Z,65.71
2019-03-17T21:40:24.447Z,65.88
2019-03-17T21:42:53.862Z,66.08
2019-03-17T21:45:23.297Z,65.86
2019-03-17T21:47:52.715Z,65.81
2019-03-17T21:50:22.417Z,65.79
2019-03-17T21:52:51.853Z,65.25
2019-03-17T21:55:21.285Z,65.58
2019-03-17T21:57:50.710Z,65.37
2019-03-17T22:00:23.111Z,65.84
2019-03-17T22:02:54.916Z,65.66
2019-03-17T22:05:23.688Z,65.06
2019-03-17T22:07:53.112Z,65.00
2019-03-17T22:10:23.111Z,64.51
2019-03-17T22:12:52.532Z,64.64
2019-03-17T22:15:21.965Z,64.32
2019-03-17T22:17:51.387Z,64.50
2019-03-17T22:20:20.819Z,64.13
2019-03-17T22:22:50.245Z,63.80
2019-03-17T22:25:19.676Z,63.92
2019-03-17T22:27:49.129Z,64.34
2019-03-17T22:30:22.237Z,64.19
2019-03-17T22:32:51.676Z,63.64
2019-03-17T22:35:21.095Z,64.00
2019-03-17T22:37:50.754Z,63.16
2019-03-17T22:40:20.459Z,63.09
2019-03-17T22:42:49.887Z,63.62
2019-03-17T22:45:19.311Z,63.52
2019-03-17T22:47:48.734Z,63.26
2019-03-17T22:50:19.282Z,63.45
2019-03-17T22:52:48.795Z,63.45
2019-03-17T22:55:18.203Z,63.67
2019-03-17T22:57:47.626Z,63.90
2019-03-17T23:00:26.298Z,63.93
2019-03-17T23:02:55.721Z,64.26
2019-03-17T23:05:25.426Z,64.60
2019-03-17T23:07:54.849Z,64.60
2019-03-17T23:10:24.547Z,64.80
2019-03-17T23:12:53.972Z,65.04
2019-03-17T23:15:23.420Z,64.90
2019-03-17T23:17:52.834Z,65.48
2019-03-17T23:20:22.265Z,65.53
2019-03-17T23:22:51.982Z,65.79
2019-03-17T23:25:21.423Z,66.16
2019-03-17T23:27:50.853Z,66.36
2019-03-17T23:30:21.895Z,66.69
2019-03-17T23:32:51.310Z,67.02
2019-03-17T23:35:20.753Z,66.67
2019-03-17T23:37:50.178Z,66.43
2019-03-17T23:40:19.612Z,66.85
2019-03-17T23:42:49.039Z,67.59
2019-03-17T23:45:18.470Z,68.00
2019-03-17T23:47:47.889Z,68.40
2019-03-17T23:50:17.322Z,68.04
2019-03-17T23:52:46.748Z,68.04
2019-03-17T23:55:16.183Z,68.28
2019-03-17T23:57:45.604Z,68.65
